createdAt,value
2023-02-15T00:01:37.499Z,28.70
2023-02-15T00:04:05.360Z,31.17
2023-02-15T00:06:31.917Z,31.10
2023-02-15T00:08:59.568Z,32.57
2023-02-15T00:11:41.804Z,32.07
2023-02-15T00:14:20.088Z,32.40
2023-02-15T00:16:47.496Z,33.53
2023-02-15T00:19:16.421Z,34.37
2023-02-15T00:21:43.296Z,34.53
2023-02-15T00:24:12.283Z,32.70
2023-02-15T00:26:40.687Z,35.37
2023-02-15T00:29:07.354Z,29.63
2023-02-15T00:31:34.388Z,32.73
2023-02-15T00:34:16.196Z,29.80
2023-02-15T00:36:43.588Z,32.90
2023-02-15T00:39:10.223Z,33.40
2023-02-15T00:41:37.116Z,30.80
2023-02-15T00:44:04.254Z,35.87
2023-02-15T00:46:31.459Z,36.40
2023-02-15T00:48:57.968Z,35.80
2023-02-15T00:51:25.128Z,38.73
2023-02-15T00:53:52.098Z,39.63
2023-02-15T00:56:18.725Z,33.63
2023-02-15T00:58:45.341Z,33.57
2023-02-15T01:01:15.400Z,34.87
2023-02-15T01:03:45.178Z,31.07
2023-02-15T01:06:11.926Z,34.77
2023-02-15T01:08:39.345Z,30.50
2023-02-15T01:11:09.383Z,32.30
2023-02-15T01:13:36.534Z,34.27
2023-02-15T01:16:05.177Z,33.30
2023-02-15T01:18:34.650Z,33.23
2023-02-15T01:21:01.148Z,30.73
2023-02-15T01:23:27.658Z,30.73
2023-02-15T01:25:54.075Z,29.87
2023-02-15T01:28:20.519Z,31.37
2023-02-15T01:30:47.088Z,37.27
2023-02-15T01:33:18.726Z,32.40
2023-02-15T01:35:46.916Z,35.70
2023-02-15T01:38:15.157Z,32.23
2023-02-15T01:40:41.993Z,35.47
2023-02-15T01:43:13.420Z,35.13
2023-02-15T01:45:40.260Z,38.37
2023-02-15T01:48:13.610Z,39.07
2023-02-15T01:51:02.984Z,38.30
2023-02-15T01:53:41.392Z,42.10
2023-02-15T01:56:13.923Z,39.00
2023-02-15T01:58:40.981Z,41.73
2023-02-15T02:01:09.062Z,35.33
2023-02-15T02:04:14.078Z,34.67
2023-02-15T02:06:40.933Z,32.27
2023-02-15T02:09:07.450Z,36.10
2023-02-15T02:11:35.006Z,33.77
2023-02-15T02:14:01.483Z,33.77
2023-02-15T02:16:56.949Z,36.23
2023-02-15T02:19:44.612Z,34.80
2023-02-15T02:22:25.119Z,35.70
2023-02-15T02:25:14.859Z,37.27
2023-02-15T02:28:18.918Z,34.30
2023-02-15T02:31:07.431Z,35.47
2023-02-15T02:33:59.148Z,34.93
2023-02-15T02:36:55.382Z,37.50
2023-02-15T02:39:31.720Z,34.23
2023-02-15T02:42:16.140Z,36.13
2023-02-15T02:45:10.386Z,35.50
2023-02-15T02:47:49.766Z,33.17
2023-02-15T02:50:25.007Z,34.13
2023-02-15T02:52:54.256Z,34.60
2023-02-15T02:55:36.344Z,34.13
2023-02-15T02:58:24.691Z,36.43
2023-02-15T03:00:58.282Z,37.20
2023-02-15T03:03:42.871Z,34.17
2023-02-15T03:06:18.775Z,35.30
2023-02-15T03:08:58.504Z,35.30
2023-02-15T03:11:24.998Z,33.60
2023-02-15T03:13:51.814Z,32.87
2023-02-15T03:16:27.482Z,35.33
2023-02-15T03:19:09.663Z,38.00
2023-02-15T03:21:58.390Z,36.93
2023-02-15T03:24:49.938Z,38.67
2023-02-15T03:27:21.015Z,36.27
2023-02-15T03:29:53.148Z,34.77
2023-02-15T03:32:20.098Z,40.97
2023-02-15T03:34:47.216Z,34.77
2023-02-15T03:37:22.855Z,35.00
2023-02-15T03:39:57.531Z,35.13
2023-02-15T03:42:30.325Z,35.30
2023-02-15T03:45:04.844Z,36.97
2023-02-15T03:47:35.472Z,34.63
2023-02-15T03:50:40.314Z,39.40
2023-02-15T03:53:11.562Z,41.60
2023-02-15T03:55:38.321Z,36.90
2023-02-15T03:58:23.422Z,39.50
2023-02-15T04:01:17.888Z,38.80
2023-02-15T04:03:51.540Z,35.17
2023-02-15T04:06:17.974Z,33.40
2023-02-15T04:09:03.016Z,37.27
2023-02-15T04:11:29.452Z,34.50
2023-02-15T04:13:57.499Z,36.73
2023-02-15T04:16:27.933Z,37.37
2023-02-15T04:19:13.862Z,38.50
2023-02-15T04:21:58.649Z,35.40
2023-02-15T04:24:43.380Z,35.43
2023-02-15T04:27:10.025Z,39.37
2023-02-15T04:29:36.467Z,40.57
2023-02-15T04:32:03.508Z,42.43
2023-02-15T04:34:30.056Z,37.73
2023-02-15T04:36:56.553Z,38.43
2023-02-15T04:39:23.047Z,39.23
2023-02-15T04:41:49.447Z,39.90
2023-02-15T04:44:16.479Z,42.60
2023-02-15T04:46:43.019Z,41.30
2023-02-15T04:49:10.293Z,40.97
2023-02-15T04:51:37.287Z,44.20
2023-02-15T04:54:03.838Z,42.00
2023-02-15T04:56:31.050Z,40.63
2023-02-15T04:58:57.824Z,39.23
2023-02-15T05:01:24.337Z,42.47
2023-02-15T05:03:50.754Z,41.67
2023-02-15T05:06:17.220Z,41.93
2023-02-15T05:08:43.659Z,40.63
2023-02-15T05:11:10.103Z,34.10
2023-02-15T05:13:36.610Z,33.07
2023-02-15T05:16:03.323Z,32.07
2023-02-15T05:18:30.108Z,32.40
2023-02-15T05:20:56.641Z,37.43
2023-02-15T05:23:23.108Z,40.27
2023-02-15T05:26:08.647Z,40.03
2023-02-15T05:28:36.690Z,40.43
2023-02-15T05:31:07.754Z,41.83
2023-02-15T05:33:35.114Z,42.90
2023-02-15T05:36:02.891Z,44.73
2023-02-15T05:38:30.176Z,38.83
2023-02-15T05:40:56.865Z,35.30
2023-02-15T05:43:24.314Z,47.37
2023-02-15T05:45:53.064Z,40.80
2023-02-15T05:48:21.253Z,37.73
2023-02-15T05:50:57.446Z,37.27
2023-02-15T05:53:23.939Z,38.47
2023-02-15T05:56:00.657Z,37.10
2023-02-15T05:58:28.098Z,37.57
2023-02-15T06:00:54.595Z,39.60
2023-02-15T06:03:21.185Z,41.37
2023-02-15T06:05:47.663Z,37.93
2023-02-15T06:08:14.080Z,38.20
2023-02-15T06:10:41.089Z,40.73
2023-02-15T06:13:07.901Z,38.77
2023-02-15T06:15:34.559Z,42.10
2023-02-15T06:18:00.982Z,42.27
2023-02-15T06:20:27.712Z,45.57
2023-02-15T06:22:54.115Z,40.90
2023-02-15T06:25:20.573Z,49.93
2023-02-15T06:27:47.080Z,41.90
2023-02-15T06:30:14.183Z,45.50
2023-02-15T06:32:41.485Z,44.00
2023-02-15T06:35:08.171Z,43.07
2023-02-15T06:37:34.659Z,45.67
2023-02-15T06:40:03.654Z,49.37
2023-02-15T06:42:30.834Z,46.60
2023-02-15T06:44:57.303Z,46.83
2023-02-15T06:47:23.712Z,43.83
2023-02-15T06:49:50.134Z,44.90
2023-02-15T06:52:16.599Z,45.80
2023-02-15T06:54:43.004Z,43.50
2023-02-15T06:57:10.449Z,49.90
2023-02-15T06:59:36.938Z,52.90
2023-02-15T07:02:03.361Z,48.07
2023-02-15T07:04:30.973Z,46.00
2023-02-15T07:06:57.523Z,48.23
2023-02-15T07:09:24.486Z,46.70
2023-02-15T07:12:09.282Z,41.20
2023-02-15T07:14:35.797Z,49.30
2023-02-15T07:17:02.241Z,47.47
2023-02-15T07:19:28.678Z,46.77
2023-02-15T07:21:55.141Z,51.53
2023-02-15T07:24:21.663Z,44.93
2023-02-15T07:26:48.092Z,41.00
2023-02-15T07:29:14.536Z,47.63
2023-02-15T07:31:41.025Z,45.60
2023-02-15T07:34:08.524Z,44.20
2023-02-15T07:36:35.017Z,44.40
2023-02-15T07:39:01.481Z,48.07
2023-02-15T07:41:27.886Z,49.80
2023-02-15T07:43:54.308Z,48.33
2023-02-15T07:46:21.800Z,44.97
2023-02-15T07:48:48.816Z,48.47
2023-02-15T07:51:16.730Z,45.80
2023-02-15T07:53:43.292Z,43.60
2023-02-15T07:56:14.507Z,56.53
2023-02-15T07:58:53.054Z,46.00
2023-02-15T08:01:24.913Z,45.63
2023-02-15T08:03:51.690Z,48.10
2023-02-15T08:06:18.231Z,45.30
2023-02-15T08:08:44.798Z,45.27
2023-02-15T08:11:26.407Z,45.93
2023-02-15T08:13:55.624Z,42.80
2023-02-15T08:16:26.293Z,44.87
2023-02-15T08:18:53.618Z,48.57
2023-02-15T08:21:24.412Z,42.60
2023-02-15T08:23:53.987Z,45.47
2023-02-15T08:26:20.407Z,45.70
2023-02-15T08:28:47.487Z,46.03
2023-02-15T08:31:14.559Z,47.73
2023-02-15T08:33:43.016Z,59.33
2023-02-15T08:36:15.323Z,65.50
2023-02-15T08:38:42.724Z,58.87
2023-02-15T08:41:23.522Z,58.93
2023-02-15T08:44:01.891Z,52.33
2023-02-15T08:46:31.104Z,56.17
2023-02-15T08:48:57.930Z,54.23
2023-02-15T08:51:27.246Z,48.67
2023-02-15T08:53:56.110Z,48.67
2023-02-15T08:56:26.813Z,50.90
2023-02-15T08:58:57.366Z,53.90
2023-02-15T09:01:26.542Z,40.13
2023-02-15T09:03:58.101Z,38.40
2023-02-15T09:06:25.928Z,37.97
2023-02-15T09:08:53.759Z,35.57
2023-02-15T09:11:24.532Z,36.87
2023-02-15T09:13:54.336Z,36.00
2023-02-15T09:16:22.568Z,37.20
2023-02-15T09:18:49.860Z,36.23
2023-02-15T09:21:18.795Z,36.20
2023-02-15T09:23:46.973Z,34.50
2023-02-15T09:26:16.106Z,39.50
2023-02-15T09:28:43.842Z,38.30
2023-02-15T09:31:24.195Z,35.73
2023-02-15T09:33:51.025Z,31.87
2023-02-15T09:36:32.251Z,33.90
2023-02-15T09:39:04.113Z,34.00
2023-02-15T09:41:33.628Z,33.73
2023-02-15T09:44:23.842Z,31.97
2023-02-15T09:46:59.271Z,28.77
2023-02-15T09:49:40.803Z,35.00
2023-02-15T09:52:23.167Z,32.73
2023-02-15T09:55:37.148Z,36.70
2023-02-15T09:58:30.244Z,35.60
2023-02-15T10:01:09.924Z,30.57
2023-02-15T10:03:48.005Z,34.73
2023-02-15T10:06:43.126Z,33.47
2023-02-15T10:09:54.268Z,30.70
2023-02-15T10:12:43.627Z,33.97
2023-02-15T10:15:22.254Z,31.23
2023-02-15T10:18:10.527Z,32.83
2023-02-15T10:21:01.338Z,29.43
2023-02-15T10:23:56.563Z,27.60
2023-02-15T10:26:29.333Z,38.53
2023-02-15T10:29:17.172Z,30.80
2023-02-15T10:31:54.157Z,30.07
2023-02-15T10:34:31.849Z,32.20
2023-02-15T10:37:05.345Z,27.10
2023-02-15T10:39:58.657Z,28.13
2023-02-15T10:42:50.427Z,26.60
2023-02-15T10:45:50.958Z,41.10
2023-02-15T10:48:47.036Z,44.60
2023-02-15T10:51:30.352Z,56.03
2023-02-15T10:54:20.505Z,38.80
2023-02-15T10:56:55.017Z,38.40
2023-02-15T10:59:33.230Z,32.13
2023-02-15T11:02:08.456Z,31.80
2023-02-15T11:04:43.059Z,29.23
2023-02-15T11:07:17.034Z,29.13
2023-02-15T11:10:06.212Z,28.00
2023-02-15T11:12:34.236Z,30.03
2023-02-15T11:15:19.471Z,27.73
2023-02-15T11:17:58.900Z,27.90
2023-02-15T11:20:37.945Z,28.33
2023-02-15T11:23:16.341Z,27.90
2023-02-15T11:25:47.429Z,26.90
2023-02-15T11:28:23.195Z,28.10
2023-02-15T11:30:54.768Z,27.90
2023-02-15T11:33:28.357Z,29.60
2023-02-15T11:36:01.339Z,30.07
2023-02-15T11:38:33.753Z,27.57
2023-02-15T11:41:12.110Z,30.23
2023-02-15T11:43:50.989Z,29.10
2023-02-15T11:46:17.572Z,28.57
2023-02-15T11:48:44.398Z,30.03
2023-02-15T11:51:17.026Z,29.67
2023-02-15T11:53:45.492Z,31.13
2023-02-15T11:56:17.655Z,34.00
2023-02-15T11:58:53.709Z,33.30
2023-02-15T12:01:45.628Z,27.47
2023-02-15T12:04:34.353Z,29.03
2023-02-15T12:07:12.550Z,28.40
2023-02-15T12:09:50.504Z,25.83
2023-02-15T12:12:29.362Z,29.23
2023-02-15T12:15:01.866Z,26.07
2023-02-15T12:17:35.471Z,34.30
2023-02-15T12:20:04.713Z,25.20
2023-02-15T12:22:35.078Z,36.90
2023-02-15T12:25:21.166Z,46.30
2023-02-15T12:27:49.025Z,39.23
2023-02-15T12:30:38.249Z,42.67
2023-02-15T12:33:26.444Z,45.07
2023-02-15T12:36:01.972Z,46.60
2023-02-15T12:38:29.723Z,39.50
2023-02-15T12:41:20.940Z,33.10
2023-02-15T12:43:47.486Z,27.97
2023-02-15T12:46:27.449Z,27.87
2023-02-15T12:49:20.166Z,24.80
2023-02-15T12:51:57.544Z,30.63
2023-02-15T12:54:31.565Z,30.00
2023-02-15T12:56:59.498Z,30.40
2023-02-15T12:59:26.084Z,26.40
2023-02-15T13:01:57.009Z,28.30
2023-02-15T13:04:29.499Z,26.57
2023-02-15T13:07:00.851Z,27.83
2023-02-15T13:09:33.336Z,34.03
2023-02-15T13:12:22.924Z,28.90
2023-02-15T13:14:52.755Z,28.40
2023-02-15T13:17:25.819Z,27.67
2023-02-15T13:19:55.479Z,25.40
2023-02-15T13:22:49.797Z,26.07
2023-02-15T13:25:32.309Z,25.20
2023-02-15T13:28:03.816Z,23.13
2023-02-15T13:30:35.991Z,31.03
2023-02-15T13:33:27.230Z,28.53
2023-02-15T13:36:02.095Z,28.07
2023-02-15T13:38:44.509Z,22.13
2023-02-15T13:41:15.970Z,25.00
2023-02-15T13:44:03.607Z,26.30
2023-02-15T13:46:51.579Z,21.67
2023-02-15T13:49:39.871Z,26.10
2023-02-15T13:52:22.785Z,24.30
2023-02-15T13:55:04.145Z,25.70
2023-02-15T13:58:08.010Z,22.80
2023-02-15T14:01:06.386Z,24.63
2023-02-15T14:04:07.793Z,32.73
2023-02-15T14:06:52.534Z,21.60
2023-02-15T14:09:37.641Z,21.90
2023-02-15T14:12:42.545Z,25.13
2023-02-15T14:15:23.418Z,26.73
2023-02-15T14:17:52.817Z,25.27
2023-02-15T14:20:39.071Z,23.87
2023-02-15T14:23:17.670Z,24.00
2023-02-15T14:25:55.248Z,24.13
2023-02-15T14:28:32.697Z,21.73
2023-02-15T14:30:59.455Z,22.47
2023-02-15T14:33:54.784Z,22.03
2023-02-15T14:36:21.635Z,23.30
2023-02-15T14:39:45.884Z,23.27
2023-02-15T14:42:25.411Z,22.20
2023-02-15T14:45:17.897Z,28.20
2023-02-15T14:48:01.599Z,25.60
2023-02-15T14:50:31.103Z,33.83
2023-02-15T14:53:17.052Z,23.37
2023-02-15T14:55:43.511Z,26.20
2023-02-15T14:58:14.509Z,22.73
2023-02-15T15:00:42.521Z,24.20
2023-02-15T15:03:44.206Z,24.00
2023-02-15T15:06:26.511Z,25.60
2023-02-15T15:09:00.529Z,24.40
2023-02-15T15:11:42.423Z,29.20
2023-02-15T15:14:11.625Z,23.67
2023-02-15T15:16:38.354Z,26.53
2023-02-15T15:19:10.356Z,26.87
2023-02-15T15:21:57.233Z,26.20
2023-02-15T15:24:39.106Z,24.87
2023-02-15T15:27:40.993Z,25.90
2023-02-15T15:30:19.860Z,25.33
2023-02-15T15:32:55.799Z,23.67
2023-02-15T15:35:31.262Z,26.33
2023-02-15T15:38:13.280Z,24.40
2023-02-15T15:40:55.678Z,25.87
2023-02-15T15:43:43.479Z,21.70
2023-02-15T15:46:38.450Z,29.70
2023-02-15T15:49:16.351Z,27.77
2023-02-15T15:51:44.450Z,26.53
2023-02-15T15:54:18.250Z,37.53
2023-02-15T15:56:52.559Z,28.40
2023-02-15T15:59:28.617Z,27.03
2023-02-15T16:01:56.044Z,29.80
2023-02-15T16:04:32.952Z,30.20
2023-02-15T16:07:17.384Z,25.47
2023-02-15T16:10:20.150Z,28.73
2023-02-15T16:12:49.678Z,23.23
2023-02-15T16:15:24.552Z,25.13
2023-02-15T16:17:55.858Z,25.57
2023-02-15T16:20:35.053Z,31.77
2023-02-15T16:23:24.667Z,29.43
2023-02-15T16:25:51.192Z,26.00
2023-02-15T16:28:19.567Z,28.40
2023-02-15T16:30:46.136Z,26.93
2023-02-15T16:33:18.271Z,23.77
2023-02-15T16:35:59.194Z,23.57
2023-02-15T16:38:46.511Z,24.20
2023-02-15T16:41:17.383Z,27.70
2023-02-15T16:43:48.606Z,24.47
2023-02-15T16:46:21.876Z,28.53
2023-02-15T16:48:52.713Z,31.80
2023-02-15T16:51:27.565Z,28.00
2023-02-15T16:53:56.546Z,28.70
2023-02-15T16:56:29.338Z,24.60
2023-02-15T16:58:56.620Z,25.13
2023-02-15T17:01:27.260Z,26.93
2023-02-15T17:04:26.921Z,27.57
2023-02-15T17:07:14.985Z,24.93
2023-02-15T17:09:51.253Z,26.50
2023-02-15T17:12:58.612Z,24.53
2023-02-15T17:15:36.733Z,24.83
2023-02-15T17:18:10.781Z,27.90
2023-02-15T17:20:39.733Z,27.57
2023-02-15T17:23:06.723Z,26.90
2023-02-15T17:25:39.471Z,24.87
2023-02-15T17:28:16.342Z,27.10
2023-02-15T17:30:47.066Z,27.90
2023-02-15T17:33:29.890Z,31.57
2023-02-15T17:36:15.496Z,25.20
2023-02-15T17:39:03.221Z,27.43
2023-02-15T17:41:38.780Z,26.77
2023-02-15T17:44:05.302Z,32.80
2023-02-15T17:46:37.965Z,31.60
2023-02-15T17:49:04.872Z,29.17
2023-02-15T17:51:32.229Z,25.33
2023-02-15T17:54:17.348Z,28.80
2023-02-15T17:56:43.819Z,32.00
2023-02-15T17:59:12.329Z,31.97
2023-02-15T18:02:04.575Z,25.70
2023-02-15T18:04:52.016Z,30.07
2023-02-15T18:07:38.373Z,34.33
2023-02-15T18:10:35.846Z,28.30
2023-02-15T18:13:02.335Z,28.10
2023-02-15T18:15:29.168Z,26.33
2023-02-15T18:17:56.445Z,27.60
2023-02-15T18:20:26.991Z,31.80
2023-02-15T18:22:54.253Z,27.20
2023-02-15T18:25:24.137Z,31.27
2023-02-15T18:27:51.364Z,29.57
2023-02-15T18:30:21.717Z,28.63
2023-02-15T18:32:51.503Z,30.77
2023-02-15T18:35:24.152Z,30.10
2023-02-15T18:37:52.950Z,25.20
2023-02-15T18:40:22.205Z,29.80
2023-02-15T18:42:49.483Z,50.03
2023-02-15T18:45:23.509Z,60.70
2023-02-15T18:47:50.351Z,82.03
2023-02-15T18:50:19.103Z,69.33
2023-02-15T18:52:48.107Z,60.73
2023-02-15T18:55:23.543Z,46.03
2023-02-15T18:57:52.237Z,46.33
2023-02-15T19:00:30.105Z,36.40
2023-02-15T19:02:57.040Z,28.70
2023-02-15T19:05:25.134Z,28.50
2023-02-15T19:07:52.027Z,34.53
2023-02-15T19:10:21.407Z,32.23
2023-02-15T19:12:48.436Z,33.47
2023-02-15T19:15:26.862Z,32.67
2023-02-15T19:17:54.341Z,40.30
2023-02-15T19:20:31.822Z,46.90
2023-02-15T19:23:01.462Z,31.23
2023-02-15T19:25:30.553Z,34.17
2023-02-15T19:27:58.380Z,35.17
2023-02-15T19:30:28.602Z,31.23
2023-02-15T19:32:58.607Z,31.30
2023-02-15T19:35:29.893Z,27.13
2023-02-15T19:37:59.576Z,30.73
2023-02-15T19:40:30.666Z,33.17
2023-02-15T19:42:57.776Z,29.10
2023-02-15T19:45:27.232Z,30.97
2023-02-15T19:47:55.113Z,31.37
2023-02-15T19:50:25.134Z,33.83
2023-02-15T19:52:52.976Z,32.07
2023-02-15T19:55:26.925Z,32.00
2023-02-15T19:57:55.056Z,34.43
2023-02-15T20:00:25.703Z,30.80
2023-02-15T20:02:53.431Z,32.13
2023-02-15T20:05:21.273Z,32.70
2023-02-15T20:07:49.819Z,45.43
2023-02-15T20:10:22.013Z,30.77
2023-02-15T20:12:48.747Z,28.63
2023-02-15T20:15:21.233Z,32.23
2023-02-15T20:17:48.127Z,26.93
2023-02-15T20:20:15.673Z,29.90
2023-02-15T20:22:44.810Z,27.47
2023-02-15T20:25:27.892Z,30.53
2023-02-15T20:27:54.650Z,31.03
2023-02-15T20:30:23.817Z,34.27
2023-02-15T20:32:50.926Z,32.17
2023-02-15T20:35:19.732Z,33.30
2023-02-15T20:37:49.540Z,33.17
2023-02-15T20:40:19.644Z,29.67
2023-02-15T20:42:47.113Z,32.40
2023-02-15T20:45:28.294Z,29.77
2023-02-15T20:47:55.354Z,32.13
2023-02-15T20:50:25.786Z,35.57
2023-02-15T20:52:54.129Z,36.50
2023-02-15T20:55:29.252Z,32.10
2023-02-15T20:57:56.836Z,33.27
2023-02-15T21:00:26.905Z,33.60
2023-02-15T21:03:01.333Z,29.93
2023-02-15T21:05:30.757Z,32.90
2023-02-15T21:07:57.717Z,32.97
2023-02-15T21:10:27.852Z,34.10
2023-02-15T21:12:54.450Z,31.63
2023-02-15T21:15:41.899Z,29.30
2023-02-15T21:18:15.970Z,36.43
2023-02-15T21:20:48.359Z,33.97
2023-02-15T21:23:17.513Z,32.80
2023-02-15T21:25:44.809Z,33.90
2023-02-15T21:28:20.185Z,32.73
2023-02-15T21:30:48.418Z,30.90
2023-02-15T21:33:15.218Z,29.63
2023-02-15T21:35:43.254Z,34.47
2023-02-15T21:38:15.006Z,30.97
2023-02-15T21:40:42.332Z,29.57
2023-02-15T21:43:40.171Z,31.00
2023-02-15T21:46:37.259Z,32.73
2023-02-15T21:49:07.110Z,32.87
2023-02-15T21:51:52.682Z,34.73
2023-02-15T21:54:20.178Z,30.60
2023-02-15T21:56:48.718Z,31.90
2023-02-15T21:59:17.001Z,36.30
2023-02-15T22:01:51.368Z,28.23
2023-02-15T22:04:25.816Z,30.70
2023-02-15T22:06:53.000Z,32.30
2023-02-15T22:09:22.951Z,34.57
2023-02-15T22:11:50.553Z,30.30
2023-02-15T22:14:39.681Z,34.23
2023-02-15T22:17:16.635Z,33.20
2023-02-15T22:19:44.551Z,40.90
2023-02-15T22:22:12.018Z,36.60
2023-02-15T22:24:39.072Z,33.20
2023-02-15T22:27:06.680Z,35.57
2023-02-15T22:29:34.050Z,36.47
2023-02-15T22:32:00.608Z,35.00
2023-02-15T22:34:29.998Z,34.93
2023-02-15T22:36:57.607Z,34.17
2023-02-15T22:39:25.348Z,35.40
2023-02-15T22:41:53.062Z,34.37
2023-02-15T22:44:32.249Z,36.23
2023-02-15T22:47:00.191Z,30.10
2023-02-15T22:49:27.222Z,33.17
2023-02-15T22:51:54.040Z,32.80
2023-02-15T22:54:20.666Z,27.50
2023-02-15T22:56:53.132Z,32.00
2023-02-15T22:59:24.458Z,36.00
2023-02-15T23:01:51.093Z,40.53
2023-02-15T23:04:23.652Z,32.00
2023-02-15T23:06:51.465Z,32.93
2023-02-15T23:09:17.912Z,39.83
2023-02-15T23:11:45.880Z,33.80
2023-02-15T23:14:27.606Z,30.40
2023-02-15T23:16:54.505Z,32.43
2023-02-15T23:19:21.347Z,37.17
2023-02-15T23:21:48.435Z,29.17
2023-02-15T23:24:19.350Z,34.00
2023-02-15T23:26:46.186Z,34.23
2023-02-15T23:29:18.626Z,31.23
2023-02-15T23:31:48.315Z,34.57
2023-02-15T23:34:26.043Z,32.90
2023-02-15T23:36:52.604Z,35.50
2023-02-15T23:39:40.194Z,30.57
2023-02-15T23:42:11.908Z,28.23
2023-02-15T23:44:40.593Z,31.93
2023-02-15T23:47:19.384Z,33.17
2023-02-15T23:49:45.828Z,33.90
2023-02-15T23:52:12.312Z,35.60
2023-02-15T23:54:38.734Z,36.20
2023-02-15T23:57:06.294Z,29.43
2023-02-15T23:59:32.859Z,36.83
